Time;durP1;ratioP1;P1;durP2;ratioP2;P2;SDS_P1;SDS_P2;PMS_P1;PMS_P2;Temp;Humidity;BMP_temperature;BMP_pressure;BME280_temperature;BME280_humidity;BME280_pressure;Samples;Min_cycle;Max_cycle;Signal;HPM_P1;HPM_P2
2023/01/20 05:40:26;;;;;;;6.32;5.03;;;10.90;59.10;;;;;;5484738;23;20056;-67
2023/01/20 05:42:52;;;;;;;7.43;3.50;;;10.70;60.00;;;;;;4913527;29;20395;-68
2023/01/20 05:45:18;;;;;;;12.18;3.00;;;10.80;60.80;;;;;;4914028;29;20059;-71
2023/01/20 05:47:43;;;;;;;7.03;2.50;;;10.90;61.90;;;;;;4910996;29;20058;-69
2023/01/20 05:50:10;;;;;;;6.57;2.78;;;11.10;62.20;;;;;;4914872;29;20131;-69
2023/01/20 05:52:35;;;;;;;7.18;2.63;;;11.40;62.20;;;;;;4909134;29;20062;-69
2023/01/20 05:55:01;;;;;;;10.85;2.55;;;11.50;62.20;;;;;;4912599;29;20455;-68
2023/01/20 05:57:27;;;;;;;10.25;3.00;;;11.80;62.40;;;;;;4913794;29;20037;-69
2023/01/20 05:59:54;;;;;;;10.15;2.50;;;11.90;62.50;;;;;;4908959;29;20059;-70
2023/01/20 06:02:20;;;;;;;5.82;2.53;;;12.10;62.40;;;;;;4909155;29;20059;-70
2023/01/20 06:04:45;;;;;;;7.95;2.47;;;12.20;62.40;;;;;;4910116;29;20044;-71
2023/01/20 06:07:12;;;;;;;15.20;3.42;;;12.30;62.60;;;;;;4909675;29;20450;-68
2023/01/20 06:09:37;;;;;;;13.40;3.03;;;12.50;62.80;;;;;;4924143;29;20040;-68
2023/01/20 06:12:03;;;;;;;12.48;3.13;;;12.60;62.90;;;;;;4907834;29;20571;-69
2023/01/20 06:14:29;;;;;;;8.75;3.17;;;12.70;63.80;;;;;;4910204;29;20044;-68
2023/01/20 06:16:55;;;;;;;9.40;2.50;;;12.80;63.10;;;;;;4894105;29;20052;-69
2023/01/20 06:19:21;;;;;;;7.13;2.75;;;12.90;63.00;;;;;;4907912;29;20360;-68
2023/01/20 06:21:47;;;;;;;10.27;2.97;;;13.00;62.90;;;;;;4909310;29;20047;-69
2023/01/20 06:24:13;;;;;;;7.68;2.97;;;13.10;62.90;;;;;;4892534;29;20127;-73
2023/01/20 06:26:38;;;;;;;11.57;3.88;;;12.80;61.40;;;;;;4913584;29;21433;-70
2023/01/20 06:29:04;;;;;;;8.90;3.95;;;13.00;63.10;;;;;;4918656;29;20063;-69
2023/01/20 06:31:30;;;;;;;14.02;5.38;;;13.10;63.10;;;;;;4918796;29;20049;-69
2023/01/20 06:33:55;;;;;;;14.75;4.85;;;13.00;59.80;;;;;;4918405;29;20502;-70
2023/01/20 06:36:21;;;;;;;15.75;4.57;;;13.20;61.70;;;;;;4921649;29;20099;-69
2023/01/20 06:38:49;;;;;;;15.00;3.80;;;13.30;61.80;;;;;;4922568;29;20052;-69
2023/01/20 06:41:16;;;;;;;11.18;4.20;;;13.40;61.60;;;;;;4922345;29;20056;-71
2023/01/20 06:43:42;;;;;;;10.82;4.45;;;13.50;61.60;;;;;;4922636;29;20056;-69
2023/01/20 06:46:13;;;;;;;11.65;4.05;;;13.60;61.40;;;;;;4937168;29;20134;-68
2023/01/20 06:48:39;;;;;;;9.38;4.00;;;13.70;61.40;;;;;;4922314;29;20044;-69
2023/01/20 06:51:14;;;;;;;9.23;4.45;;;13.80;61.50;;;;;;4922209;29;20040;-71
2023/01/20 06:53:40;;;;;;;16.88;4.78;;;13.80;61.70;;;;;;4921916;29;20044;-69
2023/01/20 06:56:06;;;;;;;12.32;4.28;;;13.80;61.50;;;;;;4922206;29;20055;-69
2023/01/20 06:58:33;;;;;;;14.38;4.47;;;13.90;61.20;;;;;;4922961;29;20048;-68
2023/01/20 07:01:05;;;;;;;12.38;6.22;;;13.90;60.90;;;;;;4905701;29;20055;-68
2023/01/20 07:03:30;;;;;;;21.65;6.50;;;14.00;60.10;;;;;;4922676;29;20126;-70
2023/01/20 07:06:03;;;;;;;19.30;5.70;;;14.00;59.90;;;;;;4904274;29;20425;-70
2023/01/20 07:08:29;;;;;;;17.35;6.85;;;14.10;59.70;;;;;;4922073;29;20195;-68
2023/01/20 07:10:56;;;;;;;14.10;5.60;;;14.10;59.60;;;;;;4922165;29;20075;-69
2023/01/20 07:13:21;;;;;;;16.67;5.63;;;14.10;59.50;;;;;;4905703;29;20056;-68
2023/01/20 07:15:47;;;;;;;14.80;5.00;;;14.20;59.60;;;;;;4920903;29;20402;-69
2023/01/20 07:18:13;;;;;;;16.98;4.75;;;14.20;59.60;;;;;;4921505;29;20044;-71
2023/01/20 07:20:39;;;;;;;19.58;4.82;;;14.30;59.60;;;;;;4922068;29;20056;-69
2023/01/20 07:23:05;;;;;;;18.42;4.65;;;14.30;58.90;;;;;;4905109;29;20091;-69
2023/01/20 07:25:31;;;;;;;11.70;4.68;;;14.30;59.50;;;;;;4920434;29;20036;-70
2023/01/20 07:27:57;;;;;;;16.20;5.55;;;14.40;59.60;;;;;;4921842;29;20098;-70
2023/01/20 07:30:23;;;;;;;13.25;4.70;;;14.50;59.50;;;;;;4921693;29;20044;-69
2023/01/20 07:32:50;;;;;;;15.85;4.80;;;14.50;59.40;;;;;;4921475;29;20055;-70
2023/01/20 07:35:16;;;;;;;10.75;4.60;;;14.50;59.40;;;;;;4920906;29;20048;-68
2023/01/20 07:37:42;;;;;;;11.60;4.85;;;14.50;59.50;;;;;;4921614;29;20207;-70
2023/01/20 07:40:08;;;;;;;12.38;5.53;;;14.50;59.40;;;;;;4921481;29;20466;-68
2023/01/20 07:42:37;;;;;;;13.75;5.00;;;14.60;59.40;;;;;;4903053;29;20352;-69
2023/01/20 07:45:04;;;;;;;15.13;5.50;;;14.70;59.40;;;;;;4902798;29;20056;-68
2023/01/20 07:47:30;;;;;;;15.25;5.32;;;14.70;59.30;;;;;;4899800;29;20128;-70
2023/01/20 07:49:55;;;;;;;19.15;5.70;;;14.70;59.30;;;;;;4901995;29;20059;-69
2023/01/20 07:52:21;;;;;;;19.73;5.30;;;14.80;59.30;;;;;;4886384;29;20056;-70
2023/01/20 07:54:47;;;;;;;13.75;5.40;;;14.80;59.20;;;;;;4885454;29;20391;-69
2023/01/20 07:57:13;;;;;;;11.05;4.97;;;14.80;59.10;;;;;;4902306;29;20387;-69
2023/01/20 07:59:39;;;;;;;16.55;6.38;;;14.90;58.90;;;;;;4902938;29;20460;-68
2023/01/20 08:02:04;;;;;;;10.40;5.35;;;14.90;58.70;;;;;;4900687;29;20455;-69
2023/01/20 08:04:33;;;;;;;15.75;6.28;;;15.00;58.50;;;;;;4902382;29;20392;-70
2023/01/20 08:06:59;;;;;;;10.45;5.50;;;15.00;58.40;;;;;;4899182;29;20045;-70
2023/01/20 08:09:25;;;;;;;10.00;4.70;;;14.90;58.10;;;;;;4885598;29;20059;-69
2023/01/20 08:11:51;;;;;;;14.10;5.57;;;15.00;58.20;;;;;;4901899;29;20444;-70
2023/01/20 08:14:16;;;;;;;20.30;8.80;;;15.00;58.20;;;;;;4885718;29;20080;-69
2023/01/20 08:16:42;;;;;;;19.98;12.30;;;15.00;57.90;;;;;;4901597;29;20044;-70
2023/01/20 08:19:08;;;;;;;23.17;16.10;;;15.00;56.20;;;;;;4901588;29;20123;-71
2023/01/20 08:21:33;;;;;;;17.75;13.65;;;15.00;55.00;;;;;;4902019;29;20119;-71
2023/01/20 08:24:03;;;;;;;18.73;13.18;;;14.90;53.20;;;;;;4901398;29;20056;-70
2023/01/20 08:26:30;;;;;;;19.65;13.38;;;14.90;53.40;;;;;;4901508;29;20484;-70
2023/01/20 08:29:04;;;;;;;20.95;13.05;;;14.90;53.80;;;;;;4901904;29;20059;-70
2023/01/20 08:31:30;;;;;;;18.50;11.00;;;15.00;53.90;;;;;;4901493;29;20052;-72
2023/01/20 08:33:56;;;;;;;18.10;11.85;;;15.00;54.50;;;;;;4901518;29;20096;-71
2023/01/20 08:36:26;;;;;;;16.17;10.45;;;15.00;54.50;;;;;;4900893;29;20055;-70
2023/01/20 08:38:53;;;;;;;15.45;9.85;;;15.00;54.70;;;;;;4885184;29;20055;-70
2023/01/20 08:41:22;;;;;;;19.58;10.20;;;15.00;53.90;;;;;;4909857;29;20079;-69
2023/01/20 08:43:48;;;;;;;13.98;9.27;;;15.00;55.40;;;;;;4918121;29;20195;-69
2023/01/20 08:46:16;;;;;;;15.93;9.05;;;15.00;55.70;;;;;;4919782;29;20131;-69
2023/01/20 08:48:42;;;;;;;16.70;8.02;;;15.00;55.80;;;;;;4919493;29;20447;-68
2023/01/20 08:51:15;;;;;;;15.52;8.52;;;15.10;55.90;;;;;;4920201;29;20067;-70
2023/01/20 08:53:41;;;;;;;30.15;11.23;;;15.20;56.00;;;;;;4920244;29;20052;-69
2023/01/20 08:56:08;;;;;;;25.63;11.40;;;15.10;56.20;;;;;;4912994;29;20432;-70
2023/01/20 08:58:33;;;;;;;32.80;12.38;;;15.10;56.00;;;;;;4901027;29;20059;-71
2023/01/20 09:01:00;;;;;;;21.67;10.98;;;15.10;53.70;;;;;;4899461;29;20356;-70
2023/01/20 09:03:26;;;;;;;19.65;9.73;;;14.80;55.80;;;;;;4902147;29;20052;-70
2023/01/20 09:05:52;;;;;;;22.00;9.80;;;14.90;56.00;;;;;;4918428;29;20498;-71
2023/01/20 09:08:18;;;;;;;23.63;9.95;;;14.90;56.10;;;;;;4919683;29;20084;-70
2023/01/20 09:10:45;;;;;;;20.23;10.02;;;15.00;55.90;;;;;;4920020;29;20395;-70
2023/01/20 09:13:11;;;;;;;17.63;9.05;;;15.00;55.60;;;;;;4903065;29;20482;-72
2023/01/20 09:15:37;;;;;;;13.43;8.70;;;15.00;56.00;;;;;;4917957;29;20048;-72
2023/01/20 09:18:03;;;;;;;15.43;8.48;;;15.10;56.20;;;;;;4919039;29;20451;-71
2023/01/20 09:20:29;;;;;;;21.42;11.40;;;15.10;56.10;;;;;;4919792;29;20119;-71
2023/01/20 09:22:55;;;;;;;25.30;12.55;;;15.10;56.10;;;;;;4902598;29;20455;-70
2023/01/20 09:25:21;;;;;;;25.20;10.35;;;15.20;54.90;;;;;;4919891;29;20131;-71
2023/01/20 09:27:47;;;;;;;17.35;10.18;;;15.20;54.80;;;;;;4919144;29;20135;-70
2023/01/20 09:30:13;;;;;;;16.45;9.25;;;15.20;54.80;;;;;;4919674;29;20052;-70
2023/01/20 09:32:38;;;;;;;17.40;9.25;;;15.20;54.90;;;;;;4902588;29;20135;-70
2023/01/20 09:35:05;;;;;;;15.23;9.50;;;15.10;54.90;;;;;;4919633;29;20044;-71
2023/01/20 09:46:35;;;;;;;14.18;8.77;;;14.80;55.20;;;;;;4918491;29;20056;-70
2023/01/20 09:55:23;;;;;;;24.95;9.63;;;13.80;55.60;;;;;;4917973;29;20135;-73
2023/01/20 09:57:59;;;;;;;16.90;9.82;;;14.00;57.30;;;;;;4919160;29;20051;-72
2023/01/20 10:00:28;;;;;;;14.70;8.63;;;14.10;57.40;;;;;;4918253;29;20087;-71
2023/01/20 10:03:02;;;;;;;13.27;7.97;;;14.20;57.40;;;;;;4918403;29;20040;-72
2023/01/20 10:05:36;;;;;;;13.38;7.93;;;14.30;57.20;;;;;;4917819;29;20100;-71
2023/01/20 10:08:14;;;;;;;17.15;8.27;;;14.50;57.10;;;;;;4918285;29;20535;-72
2023/01/20 10:10:53;;;;;;;10.60;7.70;;;14.60;57.00;;;;;;4906909;29;20062;-71
2023/01/20 10:13:35;;;;;;;12.10;7.53;;;14.60;56.70;;;;;;4918205;29;20127;-70
2023/01/20 10:16:07;;;;;;;10.35;7.00;;;14.80;56.70;;;;;;4899762;29;20135;-70
2023/01/20 10:18:48;;;;;;;14.45;7.75;;;14.90;56.70;;;;;;4912726;29;20127;-71
2023/01/20 10:21:19;;;;;;;11.65;7.60;;;15.00;56.80;;;;;;4918636;29;20044;-71
2023/01/20 10:24:03;;;;;;;14.18;7.60;;;15.00;56.70;;;;;;4917707;29;20052;-71
2023/01/20 10:26:49;;;;;;;12.35;7.32;;;15.10;56.70;;;;;;4917640;29;20443;-70
2023/01/20 10:29:22;;;;;;;13.32;7.22;;;15.10;56.80;;;;;;4909958;29;20051;-71
2023/01/20 10:31:58;;;;;;;12.95;7.40;;;15.10;56.90;;;;;;4901989;29;20067;-70
2023/01/20 10:34:30;;;;;;;13.65;8.10;;;15.10;56.80;;;;;;4919228;29;20040;-71
2023/01/20 10:37:06;;;;;;;14.45;7.72;;;15.10;56.70;;;;;;4917785;29;20064;-75
2023/01/20 10:39:48;;;;;;;13.52;7.75;;;15.20;56.60;;;;;;4918400;29;20127;-72
2023/01/20 10:42:16;;;;;;;11.95;7.38;;;15.10;56.50;;;;;;4917759;29;20052;-71
2023/01/20 10:44:44;;;;;;;13.25;7.95;;;15.20;56.80;;;;;;4918196;29;20341;-72
2023/01/20 10:47:48;;;;;;;16.38;7.75;;;15.20;56.90;;;;;;4918049;29;20043;-72
2023/01/20 10:50:16;;;;;;;12.32;7.07;;;15.20;57.00;;;;;;4918618;29;20055;-74
2023/01/20 10:52:55;;;;;;;12.25;6.82;;;14.90;57.30;;;;;;4903018;29;20036;-72
2023/01/20 10:55:23;;;;;;;14.15;6.75;;;15.00;58.10;;;;;;4917791;29;20048;-73
2023/01/20 10:57:55;;;;;;;13.90;7.03;;;15.10;57.50;;;;;;4918458;29;20059;-72
2023/01/20 11:00:27;;;;;;;14.55;6.45;;;15.20;57.40;;;;;;4918662;29;20118;-71
2023/01/20 11:02:57;;;;;;;14.40;6.47;;;15.20;57.20;;;;;;4917714;29;20040;-73
2023/01/20 11:05:29;;;;;;;13.98;6.28;;;14.80;56.80;;;;;;4917760;29;20052;-73
2023/01/20 11:07:57;;;;;;;14.35;6.38;;;15.00;57.90;;;;;;4918089;29;20044;-74
2023/01/20 11:10:25;;;;;;;13.20;6.47;;;15.10;58.00;;;;;;4918497;29;20111;-73
2023/01/20 11:12:56;;;;;;;13.88;7.00;;;15.20;58.00;;;;;;4917813;29;20071;-73
2023/01/20 11:15:35;;;;;;;11.07;6.13;;;15.30;57.90;;;;;;4918054;29;20059;-74
2023/01/20 11:18:13;;;;;;;11.48;6.43;;;15.40;57.70;;;;;;4902416;29;20056;-73
2023/01/20 11:20:48;;;;;;;10.20;6.00;;;15.50;57.60;;;;;;4918282;29;20067;-74
2023/01/20 11:23:38;;;;;;;10.35;5.88;;;15.60;57.70;;;;;;4920795;29;20054;-74
2023/01/20 11:26:25;;;;;;;12.13;6.15;;;15.70;57.70;;;;;;4920189;29;20048;-75
2023/01/20 11:28:59;;;;;;;14.57;6.07;;;15.70;57.80;;;;;;4921684;29;20044;-72
2023/01/20 11:31:44;;;;;;;12.25;6.78;;;15.80;57.90;;;;;;4921403;29;20044;-73
2023/01/20 11:34:24;;;;;;;11.13;6.10;;;15.80;58.30;;;;;;4904887;29;20122;-72
2023/01/20 11:37:14;;;;;;;13.05;5.82;;;15.80;58.60;;;;;;4905645;29;20056;-72
2023/01/20 11:41:26;;;;;;;16.67;6.57;;;15.90;58.60;;;;;;5133132;27;20389;-72
2023/01/20 11:43:56;;;;;;;11.68;6.38;;;15.90;59.20;;;;;;5112147;28;20060;-72
2023/01/20 11:46:26;;;;;;;11.55;6.43;;;16.00;59.50;;;;;;5113129;28;20044;-72
2023/01/20 11:49:12;;;;;;;18.25;9.98;;;15.90;59.50;;;;;;5112109;28;20063;-72
2023/01/20 11:51:50;;;;;;;16.48;9.80;;;15.90;57.10;;;;;;5112244;28;20054;-71
2023/01/20 11:54:22;;;;;;;13.77;9.10;;;15.90;56.30;;;;;;5109237;28;20116;-72
2023/01/20 11:56:52;;;;;;;14.65;9.52;;;16.00;56.60;;;;;;5108186;28;20054;-71
2023/01/20 11:59:23;;;;;;;13.05;8.60;;;16.00;56.60;;;;;;5091841;28;20046;-72
2023/01/20 12:01:57;;;;;;;15.50;8.70;;;15.90;54.80;;;;;;5091256;28;20045;-71
2023/01/20 12:04:40;;;;;;;17.17;7.70;;;15.70;57.40;;;;;;5097675;28;20040;-73
2023/01/20 12:07:14;;;;;;;12.40;7.80;;;15.80;57.70;;;;;;5108026;28;20048;-72
2023/01/20 12:09:43;;;;;;;11.32;7.28;;;15.80;57.70;;;;;;5092260;28;20413;-72
2023/01/20 12:12:37;;;;;;;13.73;6.43;;;15.80;58.50;;;;;;5091644;28;20565;-72
2023/01/20 12:15:21;;;;;;;12.52;5.80;;;15.80;58.00;;;;;;5106134;28;20466;-74
2023/01/20 12:18:03;;;;;;;12.02;6.63;;;15.90;58.00;;;;;;5095929;28;20044;-74
2023/01/20 12:20:43;;;;;;;16.08;7.35;;;15.90;58.00;;;;;;5092312;28;20047;-71
2023/01/20 12:23:09;;;;;;;14.18;8.90;;;15.90;57.70;;;;;;5091382;28;20463;-73
2023/01/20 12:25:58;;;;;;;17.75;8.68;;;15.90;56.80;;;;;;5092927;28;20068;-72
2023/01/20 12:28:51;;;;;;;16.35;10.30;;;15.90;55.50;;;;;;5081095;28;20490;-71
2023/01/20 12:31:19;;;;;;;17.45;10.27;;;15.90;53.30;;;;;;5091698;28;20052;-72
2023/01/20 12:33:48;;;;;;;19.70;9.55;;;15.80;53.60;;;;;;5091789;28;20044;-72
2023/01/20 12:36:53;;;;;;;15.00;7.90;;;15.80;54.00;;;;;;5104109;28;20052;-72
2023/01/20 12:39:41;;;;;;;14.23;6.97;;;15.90;54.00;;;;;;5111559;28;20116;-72
2023/01/20 12:42:25;;;;;;;12.85;6.15;;;15.90;54.30;;;;;;5111877;28;20131;-73
2023/01/20 12:45:31;;;;;;;11.70;6.45;;;16.00;54.60;;;;;;5112069;28;20051;-72
2023/01/20 12:48:18;;;;;;;11.73;6.25;;;15.90;55.00;;;;;;5111671;28;20127;-73
2023/01/20 12:51:04;;;;;;;10.15;4.90;;;15.90;55.20;;;;;;5109471;28;20126;-75
2023/01/20 12:54:04;;;;;;;10.43;5.00;;;15.90;55.50;;;;;;5098208;28;20359;-74
2023/01/20 12:56:39;;;;;;;12.07;5.13;;;15.80;54.50;;;;;;5077120;28;20131;-74
2023/01/20 12:59:22;;;;;;;9.68;5.60;;;15.80;56.10;;;;;;5077484;28;20131;-76
2023/01/20 13:02:03;;;;;;;13.57;5.60;;;15.70;56.20;;;;;;5077659;28;20040;-74
2023/01/20 13:04:47;;;;;;;10.20;4.82;;;15.70;56.50;;;;;;5077127;28;20051;-74
2023/01/20 13:07:22;;;;;;;6.78;4.35;;;15.60;56.70;;;;;;5077758;28;20447;-73
2023/01/20 13:09:54;;;;;;;8.75;5.22;;;15.60;57.00;;;;;;5077464;28;20102;-74
2023/01/20 13:12:38;;;;;;;9.20;5.25;;;15.50;57.10;;;;;;5085707;28;20048;-76
2023/01/20 13:15:03;;;;;;;;;;;15.50;57.40;;;;;;5079143;28;20131;-75
2023/01/20 13:18:08;;;;;;;11.90;4.53;;;15.40;57.60;;;;;;5094599;28;20230;-73
2023/01/20 13:20:39;;;;;;;8.23;4.03;;;15.40;57.70;;;;;;5095945;28;20055;-75
2023/01/20 13:23:09;;;;;;;9.70;3.47;;;15.30;57.80;;;;;;5096550;28;20051;-75
2023/01/20 13:25:37;;;;;;;9.57;3.72;;;15.30;58.10;;;;;;5096460;28;20040;-75
2023/01/20 13:28:06;;;;;;;10.85;4.10;;;15.20;58.10;;;;;;5097591;28;20452;-73
2023/01/20 13:30:46;;;;;;;15.00;4.63;;;15.20;58.30;;;;;;5097612;28;20044;-74
2023/01/20 13:33:25;;;;;;;17.42;4.78;;;15.20;56.80;;;;;;5097335;28;20040;-73
2023/01/20 13:35:51;;;;;;;14.23;4.63;;;15.10;58.50;;;;;;5097732;28;20059;-75
2023/01/20 13:38:29;;;;;;;9.18;4.28;;;15.10;58.50;;;;;;5097103;28;20438;-73
2023/01/20 13:40:58;;;;;;;11.63;3.70;;;15.10;58.60;;;;;;5097097;28;20064;-75
2023/01/20 13:43:25;;;;;;;11.32;4.03;;;15.10;58.50;;;;;;5096346;28;20063;-74
2023/01/20 13:46:03;;;;;;;12.80;3.90;;;15.20;58.40;;;;;;5097019;28;20090;-75
2023/01/20 13:48:30;;;;;;;9.63;4.20;;;15.20;58.40;;;;;;5096981;28;20047;-75
2023/01/20 13:51:14;;;;;;;6.78;3.63;;;15.20;58.60;;;;;;5097128;28;20121;-77
2023/01/20 13:53:41;;;;;;;;;;;15.20;58.70;;;;;;5097670;28;20127;-75
2023/01/20 13:56:33;;;;;;;8.45;3.60;;;15.10;58.80;;;;;;5095478;28;19920;-76
2023/01/20 13:58:59;;;;;;;10.18;3.63;;;15.10;58.70;;;;;;5097256;28;20122;-75
2023/01/20 14:01:26;;;;;;;7.82;3.63;;;14.90;58.30;;;;;;5095940;28;20048;-76
2023/01/20 14:04:12;;;;;;;14.68;8.60;;;15.00;58.80;;;;;;5094955;28;20055;-74
2023/01/20 14:06:53;;;;;;;14.38;10.23;;;15.00;57.60;;;;;;5077219;28;20048;-75
2023/01/20 14:09:24;;;;;;;14.82;10.63;;;14.90;55.30;;;;;;5076671;28;20057;-75
2023/01/20 14:11:52;;;;;;;14.27;10.80;;;14.90;53.70;;;;;;5076195;28;20040;-73
2023/01/20 14:14:21;;;;;;;15.45;11.20;;;14.80;52.60;;;;;;5078329;28;20040;-75
2023/01/20 14:16:47;;;;;;;18.25;13.07;;;14.80;51.90;;;;;;5097402;28;20048;-77
2023/01/20 14:19:22;;;;;;;19.63;12.60;;;14.70;51.10;;;;;;5096419;28;20048;-76
2023/01/20 14:21:53;;;;;;;18.88;13.35;;;14.70;50.80;;;;;;5096233;28;20421;-74
2023/01/20 14:24:43;;;;;;;17.02;12.68;;;14.60;50.60;;;;;;5082724;28;20506;-74
2023/01/20 14:27:18;;;;;;;14.32;11.52;;;14.60;50.40;;;;;;5096466;28;20044;-74
2023/01/20 14:29:49;;;;;;;18.88;11.35;;;14.50;50.60;;;;;;5086349;28;20048;-76
2023/01/20 14:32:27;;;;;;;18.23;11.57;;;14.50;51.00;;;;;;5075749;28;20092;-76
2023/01/20 14:34:54;;;;;;;19.33;11.45;;;14.50;51.50;;;;;;5075058;28;20459;-74
2023/01/20 14:37:31;;;;;;;19.23;11.30;;;14.50;51.80;;;;;;5075846;28;20044;-75
2023/01/20 14:40:11;;;;;;;14.30;9.63;;;14.40;52.00;;;;;;5075618;28;20453;-74
2023/01/20 14:42:40;;;;;;;16.33;11.05;;;14.40;52.40;;;;;;5074493;28;20131;-79
2023/01/20 14:45:18;;;;;;;13.90;10.23;;;14.30;53.00;;;;;;5091603;28;20047;-73
2023/01/20 14:47:46;;;;;;;16.88;9.73;;;14.30;53.60;;;;;;5086206;28;20482;-77
2023/01/20 14:50:14;;;;;;;15.00;8.65;;;14.20;54.00;;;;;;5081010;28;20133;-75
2023/01/20 14:52:40;;;;;;;15.23;9.27;;;14.10;54.50;;;;;;5075597;28;20048;-75
2023/01/20 14:55:06;;;;;;;13.52;9.27;;;14.10;54.70;;;;;;5095031;28;20113;-73
2023/01/20 14:57:34;;;;;;;13.18;9.73;;;14.10;54.90;;;;;;5095218;28;20052;-74
2023/01/20 15:00:09;;;;;;;11.40;7.90;;;14.10;55.20;;;;;;5095244;28;20037;-75
2023/01/20 15:02:37;;;;;;;14.35;8.32;;;14.10;55.30;;;;;;5094756;28;20054;-73
2023/01/20 15:05:27;;;;;;;13.43;8.98;;;14.10;55.60;;;;;;5090711;28;20059;-72
2023/01/20 15:08:05;;;;;;;12.88;7.63;;;14.10;55.60;;;;;;5075264;28;20044;-79
2023/01/20 15:10:31;;;;;;;11.15;7.18;;;14.10;56.00;;;;;;5074898;28;20442;-72
2023/01/20 15:12:58;;;;;;;12.85;8.13;;;14.00;56.10;;;;;;5080767;28;20043;-78
2023/01/20 15:15:31;;;;;;;18.17;11.52;;;14.00;56.30;;;;;;5089762;28;20203;-82
2023/01/20 15:18:20;;;;;;;18.63;13.13;;;14.00;56.10;;;;;;5074292;28;20040;-78
2023/01/20 15:20:50;;;;;;;22.08;14.20;;;14.00;54.70;;;;;;5074650;28;20331;-76
2023/01/20 15:23:35;;;;;;;24.38;15.10;;;14.00;52.40;;;;;;5073680;28;20056;-78
2023/01/20 15:26:28;;;;;;;22.95;14.82;;;13.90;50.60;;;;;;5074493;28;20344;-75
2023/01/20 15:28:56;;;;;;;20.75;13.50;;;13.70;50.60;;;;;;5073974;28;20040;-74
2023/01/20 15:31:23;;;;;;;19.48;12.00;;;13.60;51.00;;;;;;5074814;28;20144;-72
2023/01/20 15:33:49;;;;;;;17.33;9.57;;;13.50;51.60;;;;;;5074880;28;20118;-73
2023/01/20 15:36:28;;;;;;;11.50;8.48;;;13.50;52.00;;;;;;5074528;28;20044;-72
2023/01/20 15:38:54;;;;;;;11.55;7.20;;;13.60;52.30;;;;;;5074293;28;20052;-73
2023/01/20 15:41:20;;;;;;;12.13;6.78;;;13.60;53.00;;;;;;5060656;28;20137;-71
2023/01/20 15:43:47;;;;;;;12.00;6.90;;;13.80;53.40;;;;;;5074484;28;20447;-72
2023/01/20 15:46:16;;;;;;;9.38;5.93;;;13.90;53.70;;;;;;5074437;28;20052;-72
2023/01/20 15:48:43;;;;;;;11.95;5.95;;;14.00;54.20;;;;;;5074698;28;20044;-73
2023/01/20 15:51:13;;;;;;;9.25;5.30;;;14.10;54.50;;;;;;5074373;28;20048;-74
2023/01/20 15:53:39;;;;;;;9.02;4.80;;;14.30;54.70;;;;;;5074919;28;20439;-73
2023/01/20 15:56:08;;;;;;;10.48;4.78;;;14.40;55.10;;;;;;5075000;28;20052;-71
2023/01/20 15:58:36;;;;;;;12.48;5.07;;;14.50;55.40;;;;;;5073906;28;20051;-72
2023/01/20 16:01:01;;;;;;;17.30;5.13;;;14.50;55.80;;;;;;5071246;28;20120;-73
2023/01/20 16:03:27;;;;;;;12.27;5.43;;;14.50;56.20;;;;;;5054704;28;20198;-73
2023/01/20 16:05:54;;;;;;;11.55;5.28;;;14.50;56.30;;;;;;5054512;28;20363;-71
2023/01/20 16:08:23;;;;;;;14.13;4.90;;;14.60;56.60;;;;;;5053495;28;20418;-72
2023/01/20 16:10:49;;;;;;;12.90;4.57;;;14.60;56.80;;;;;;5053839;28;20146;-71
2023/01/20 16:13:15;;;;;;;10.65;4.20;;;14.70;57.60;;;;;;5074687;28;20437;-73
2023/01/20 16:15:42;;;;;;;14.38;4.03;;;14.80;57.00;;;;;;5074744;28;20087;-73
2023/01/20 16:18:16;;;;;;;13.57;4.40;;;14.90;57.10;;;;;;5074658;28;20145;-73
2023/01/20 16:20:44;;;;;;;11.60;4.00;;;15.00;57.10;;;;;;5074124;28;20040;-75
2023/01/20 16:23:10;;;;;;;19.75;4.40;;;15.00;57.10;;;;;;5054551;28;20388;-75
2023/01/20 16:25:37;;;;;;;16.13;4.10;;;15.00;57.20;;;;;;5053999;28;20052;-72
2023/01/20 16:28:18;;;;;;;17.02;4.47;;;15.20;57.50;;;;;;5058329;28;20136;-72
2023/01/20 16:30:44;;;;;;;21.05;4.05;;;15.20;57.60;;;;;;5058339;28;20056;-74
2023/01/20 16:33:24;;;;;;;17.20;4.25;;;15.20;57.70;;;;;;5076554;28;20053;-74
2023/01/20 16:35:51;;;;;;;12.70;4.05;;;15.30;57.90;;;;;;5077433;28;20109;-74
2023/01/20 16:38:21;;;;;;;14.95;5.20;;;15.30;57.70;;;;;;5077537;28;20056;-74
2023/01/20 16:41:15;;;;;;;21.02;4.57;;;15.40;58.00;;;;;;5090784;28;20052;-75
2023/01/20 16:43:42;;;;;;;27.05;5.82;;;15.40;58.10;;;;;;5076238;28;20437;-71
2023/01/20 16:46:25;;;;;;;22.98;5.40;;;15.50;58.10;;;;;;5077899;28;20087;-71
2023/01/20 16:48:58;;;;;;;22.05;4.80;;;15.50;58.20;;;;;;5078001;28;20148;-71
2023/01/20 16:51:25;;;;;;;22.07;5.67;;;15.60;58.10;;;;;;5081762;28;20085;-72
2023/01/20 16:53:52;;;;;;;17.50;5.40;;;15.60;58.20;;;;;;5098061;28;20040;-72
2023/01/20 16:56:20;;;;;;;23.20;5.40;;;15.60;58.30;;;;;;5097781;28;20450;-71
2023/01/20 16:58:51;;;;;;;20.10;5.07;;;15.60;58.20;;;;;;5097869;28;20117;-70
2023/01/20 17:01:23;;;;;;;22.10;5.25;;;15.60;58.50;;;;;;5093508;28;20136;-70
2023/01/20 17:03:51;;;;;;;23.33;5.93;;;15.60;58.80;;;;;;5078172;28;20459;-72
2023/01/20 17:06:19;;;;;;;20.52;5.68;;;15.50;58.70;;;;;;5075968;28;20040;-72
2023/01/20 17:08:47;;;;;;;26.65;5.93;;;15.50;58.70;;;;;;5076081;28;20082;-73
2023/01/20 17:11:19;;;;;;;19.58;8.30;;;15.40;58.80;;;;;;5076641;28;20055;-72
2023/01/20 18:56:13;;;;;;;16.05;5.80;;;12.40;65.90;;;;;;5487655;24;20508;-69
2023/01/20 18:58:44;;;;;;;10.10;5.03;;;12.50;66.40;;;;;;4898042;29;20061;-71
2023/01/20 19:01:21;;;;;;;11.65;6.00;;;12.40;66.20;;;;;;4900031;29;20057;-69
2023/01/20 19:03:48;;;;;;;11.45;5.60;;;12.40;66.20;;;;;;4890511;29;20059;-71
2023/01/20 19:06:20;;;;;;;14.40;5.78;;;12.40;66.20;;;;;;4900092;29;20063;-70
2023/01/20 19:08:49;;;;;;;11.48;6.28;;;12.40;66.40;;;;;;4899770;29;20352;-71
2023/01/20 19:11:16;;;;;;;11.90;6.03;;;12.40;66.50;;;;;;4883943;29;20152;-69
2023/01/20 19:13:43;;;;;;;9.80;5.90;;;12.40;66.50;;;;;;4900243;29;20379;-70
2023/01/20 19:16:11;;;;;;;8.90;5.22;;;12.40;66.80;;;;;;4900175;29;20052;-70
2023/01/20 19:18:41;;;;;;;10.77;5.53;;;12.40;66.70;;;;;;4900015;29;20056;-72
2023/01/20 19:21:10;;;;;;;10.13;5.60;;;12.40;66.70;;;;;;4899510;29;20044;-74
2023/01/20 19:23:36;;;;;;;10.00;4.95;;;12.40;66.70;;;;;;4883668;29;20056;-71
2023/01/20 19:26:07;;;;;;;8.65;4.82;;;12.40;66.50;;;;;;4900131;29;20123;-72
2023/01/20 19:28:34;;;;;;;11.40;6.43;;;12.50;66.30;;;;;;4899000;29;20056;-71
2023/01/20 19:31:11;;;;;;;15.93;7.28;;;12.60;66.30;;;;;;4900134;29;20448;-71
2023/01/20 19:33:36;;;;;;;14.52;6.95;;;12.60;66.20;;;;;;4899798;29;20045;-71
2023/01/20 19:36:05;;;;;;;12.50;5.93;;;12.70;66.00;;;;;;4899735;29;20388;-72
2023/01/20 19:38:32;;;;;;;10.88;5.90;;;12.80;65.90;;;;;;4899202;29;20044;-72
2023/01/20 19:41:12;;;;;;;12.25;6.45;;;12.90;65.70;;;;;;4899092;29;20060;-72
2023/01/20 19:43:38;;;;;;;10.45;6.32;;;12.90;65.40;;;;;;4897541;29;20060;-72
2023/01/20 19:46:15;;;;;;;9.93;6.80;;;12.90;65.40;;;;;;4896045;29;20522;-72
2023/01/20 19:48:41;;;;;;;9.18;6.43;;;13.00;65.20;;;;;;4899905;29;20416;-72
2023/01/20 19:51:12;;;;;;;11.50;6.90;;;13.00;65.10;;;;;;4899141;29;20080;-71
2023/01/20 19:53:38;;;;;;;11.60;6.38;;;13.00;65.00;;;;;;4899065;29;20487;-71
2023/01/20 19:56:10;;;;;;;8.32;5.88;;;13.10;64.90;;;;;;4882473;29;20344;-71
2023/01/20 19:58:37;;;;;;;9.75;6.53;;;13.10;64.90;;;;;;4864751;29;20396;-71
2023/01/20 20:01:09;;;;;;;10.93;7.18;;;13.10;64.80;;;;;;4867697;29;20045;-72
2023/01/20 20:03:36;;;;;;;9.90;6.10;;;13.10;64.60;;;;;;4903020;29;20127;-71
2023/01/20 20:06:03;;;;;;;9.85;6.38;;;13.10;64.60;;;;;;4900815;29;20048;-71
2023/01/20 20:08:29;;;;;;;9.85;7.05;;;13.10;64.50;;;;;;4902570;29;20124;-72
2023/01/20 20:10:55;;;;;;;10.32;6.80;;;13.20;64.50;;;;;;4902320;29;21596;-72
2023/01/20 20:13:22;;;;;;;10.07;6.57;;;13.10;64.40;;;;;;4903029;29;20048;-71
2023/01/20 20:15:48;;;;;;;11.40;6.68;;;13.10;64.30;;;;;;4885816;29;20056;-72
2023/01/20 20:18:14;;;;;;;8.85;5.95;;;13.10;64.30;;;;;;4902924;29;20045;-71
2023/01/20 20:20:42;;;;;;;8.77;6.05;;;13.20;64.20;;;;;;4902404;29;20071;-71
2023/01/20 20:23:09;;;;;;;10.63;6.72;;;13.10;64.10;;;;;;4902656;29;20048;-71
2023/01/20 20:25:36;;;;;;;9.57;6.75;;;13.20;64.10;;;;;;4886167;29;20477;-71
2023/01/20 20:28:05;;;;;;;10.43;6.95;;;13.10;64.10;;;;;;4905271;29;20510;-72
2023/01/20 20:30:31;;;;;;;10.38;7.07;;;13.10;64.10;;;;;;4904132;29;20052;-72
2023/01/20 20:32:57;;;;;;;11.70;7.03;;;13.20;64.00;;;;;;4902634;29;20044;-72
2023/01/20 20:35:23;;;;;;;11.40;6.07;;;13.10;63.80;;;;;;4902551;29;20049;-71
2023/01/20 20:37:48;;;;;;;11.88;7.65;;;13.10;63.80;;;;;;4903826;29;20427;-71